sensor_id;sensor_type;location;lat;lon;timestamp;temperature;humidity
32147;DHT22;32190;49.112;8.598;2023-05-07T00:03:45;21.50;48.10
32147;DHT22;32190;49.112;8.598;2023-05-07T00:09:36;21.50;48.20
32147;DHT22;32190;49.112;8.598;2023-05-07T00:15:26;21.40;48.10
32147;DHT22;32190;49.112;8.598;2023-05-07T00:21:17;21.40;48.20
32147;DHT22;32190;49.112;8.598;2023-05-07T00:27:08;21.30;48.20
32147;DHT22;32190;49.112;8.598;2023-05-07T00:32:58;21.20;48.30
32147;DHT22;32190;49.112;8.598;2023-05-07T00:38:49;21.10;48.30
32147;DHT22;32190;49.112;8.598;2023-05-07T00:44:39;21.10;48.50
32147;DHT22;32190;49.112;8.598;2023-05-07T00:50:30;21.00;48.70
32147;DHT22;32190;49.112;8.598;2023-05-07T00:56:22;20.90;48.80
32147;DHT22;32190;49.112;8.598;2023-05-07T01:02:12;20.80;48.90
32147;DHT22;32190;49.112;8.598;2023-05-07T01:08:04;20.70;48.90
32147;DHT22;32190;49.112;8.598;2023-05-07T01:13:56;20.60;49.10
32147;DHT22;32190;49.112;8.598;2023-05-07T01:19:48;20.30;49.30
32147;DHT22;32190;49.112;8.598;2023-05-07T01:25:39;20.20;49.50
32147;DHT22;32190;49.112;8.598;2023-05-07T01:31:30;20.10;49.80
32147;DHT22;32190;49.112;8.598;2023-05-07T01:37:21;20.00;49.90
32147;DHT22;32190;49.112;8.598;2023-05-07T01:43:13;19.90;50.20
32147;DHT22;32190;49.112;8.598;2023-05-07T01:49:03;19.80;50.40
32147;DHT22;32190;49.112;8.598;2023-05-07T01:54:54;19.70;50.60
32147;DHT22;32190;49.112;8.598;2023-05-07T02:00:45;19.60;50.70
32147;DHT22;32190;49.112;8.598;2023-05-07T02:06:35;19.60;51.00
32147;DHT22;32190;49.112;8.598;2023-05-07T02:12:26;19.50;51.20
32147;DHT22;32190;49.112;8.598;2023-05-07T02:18:17;19.50;51.40
32147;DHT22;32190;49.112;8.598;2023-05-07T02:24:07;19.50;51.40
32147;DHT22;32190;49.112;8.598;2023-05-07T02:29:58;19.50;51.30
32147;DHT22;32190;49.112;8.598;2023-05-07T02:35:49;19.60;51.20
32147;DHT22;32190;49.112;8.598;2023-05-07T02:41:39;19.70;51.20
32147;DHT22;32190;49.112;8.598;2023-05-07T02:47:30;19.80;51.20
32147;DHT22;32190;49.112;8.598;2023-05-07T02:53:20;19.80;51.00
32147;DHT22;32190;49.112;8.598;2023-05-07T02:59:11;19.90;51.10
32147;DHT22;32190;49.112;8.598;2023-05-07T03:05:02;19.90;51.00
32147;DHT22;32190;49.112;8.598;2023-05-07T03:10:52;19.90;50.90
32147;DHT22;32190;49.112;8.598;2023-05-07T03:16:43;19.90;50.90
32147;DHT22;32190;49.112;8.598;2023-05-07T03:22:33;19.90;50.90
32147;DHT22;32190;49.112;8.598;2023-05-07T03:28:24;19.80;50.90
32147;DHT22;32190;49.112;8.598;2023-05-07T03:34:15;19.80;50.90
32147;DHT22;32190;49.112;8.598;2023-05-07T03:40:07;19.70;50.90
32147;DHT22;32190;49.112;8.598;2023-05-07T03:45:59;19.70;50.90
32147;DHT22;32190;49.112;8.598;2023-05-07T03:51:50;19.70;50.80
32147;DHT22;32190;49.112;8.598;2023-05-07T03:57:40;19.60;50.90
32147;DHT22;32190;49.112;8.598;2023-05-07T04:03:31;19.40;51.10
32147;DHT22;32190;49.112;8.598;2023-05-07T04:09:21;19.30;51.20
32147;DHT22;32190;49.112;8.598;2023-05-07T04:15:12;19.20;51.40
32147;DHT22;32190;49.112;8.598;2023-05-07T04:21:03;19.10;51.50
32147;DHT22;32190;49.112;8.598;2023-05-07T04:26:53;19.10;51.60
32147;DHT22;32190;49.112;8.598;2023-05-07T04:32:45;19.10;51.70
32147;DHT22;32190;49.112;8.598;2023-05-07T04:38:36;19.00;51.80
32147;DHT22;32190;49.112;8.598;2023-05-07T04:44:27;19.00;52.00
32147;DHT22;32190;49.112;8.598;2023-05-07T04:50:18;18.90;52.30
32147;DHT22;32190;49.112;8.598;2023-05-07T04:56:10;18.90;52.50
32147;DHT22;32190;49.112;8.598;2023-05-07T05:02:00;19.00;52.70
32147;DHT22;32190;49.112;8.598;2023-05-07T05:07:51;19.00;52.80
32147;DHT22;32190;49.112;8.598;2023-05-07T05:13:42;19.00;53.00
32147;DHT22;32190;49.112;8.598;2023-05-07T05:19:32;19.00;53.00
32147;DHT22;32190;49.112;8.598;2023-05-07T05:25:23;19.10;53.00
32147;DHT22;32190;49.112;8.598;2023-05-07T05:31:14;19.10;53.20
32147;DHT22;32190;49.112;8.598;2023-05-07T05:37:04;19.20;53.40
32147;DHT22;32190;49.112;8.598;2023-05-07T05:42:55;19.20;53.50
32147;DHT22;32190;49.112;8.598;2023-05-07T05:48:46;19.30;53.60
32147;DHT22;32190;49.112;8.598;2023-05-07T05:54:36;19.40;53.50
32147;DHT22;32190;49.112;8.598;2023-05-07T06:00:28;19.70;53.40
32147;DHT22;32190;49.112;8.598;2023-05-07T06:06:19;19.70;53.50
32147;DHT22;32190;49.112;8.598;2023-05-07T06:12:10;19.90;53.30
32147;DHT22;32190;49.112;8.598;2023-05-07T06:18:00;20.00;53.30
32147;DHT22;32190;49.112;8.598;2023-05-07T06:23:51;20.10;53.20
32147;DHT22;32190;49.112;8.598;2023-05-07T06:29:42;20.40;53.30
32147;DHT22;32190;49.112;8.598;2023-05-07T06:35:33;21.00;53.50
32147;DHT22;32190;49.112;8.598;2023-05-07T06:41:23;21.90;52.80
32147;DHT22;32190;49.112;8.598;2023-05-07T06:47:14;22.80;51.70
32147;DHT22;32190;49.112;8.598;2023-05-07T06:53:04;23.50;50.70
32147;DHT22;32190;49.112;8.598;2023-05-07T06:58:55;23.90;49.40
32147;DHT22;32190;49.112;8.598;2023-05-07T07:04:46;23.90;49.10
32147;DHT22;32190;49.112;8.598;2023-05-07T07:10:36;23.80;48.90
32147;DHT22;32190;49.112;8.598;2023-05-07T07:16:27;23.70;49.20
32147;DHT22;32190;49.112;8.598;2023-05-07T07:22:17;23.70;49.10
32147;DHT22;32190;49.112;8.598;2023-05-07T07:28:08;23.60;48.80
32147;DHT22;32190;49.112;8.598;2023-05-07T07:34:00;23.70;48.70
32147;DHT22;32190;49.112;8.598;2023-05-07T07:39:51;23.70;49.10
32147;DHT22;32190;49.112;8.598;2023-05-07T07:45:42;23.70;48.60
32147;DHT22;32190;49.112;8.598;2023-05-07T07:51:32;23.70;48.60
32147;DHT22;32190;49.112;8.598;2023-05-07T07:57:23;23.70;48.60
32147;DHT22;32190;49.112;8.598;2023-05-07T08:03:13;23.70;49.00
32147;DHT22;32190;49.112;8.598;2023-05-07T08:09:06;23.70;48.60
32147;DHT22;32190;49.112;8.598;2023-05-07T08:14:57;23.70;48.60
32147;DHT22;32190;49.112;8.598;2023-05-07T08:20:47;23.70;48.40
32147;DHT22;32190;49.112;8.598;2023-05-07T08:26:38;23.70;48.40
32147;DHT22;32190;49.112;8.598;2023-05-07T08:32:29;23.70;48.70
32147;DHT22;32190;49.112;8.598;2023-05-07T08:38:20;23.70;48.60
32147;DHT22;32190;49.112;8.598;2023-05-07T08:44:12;23.70;48.30
32147;DHT22;32190;49.112;8.598;2023-05-07T08:50:05;23.70;48.20
32147;DHT22;32190;49.112;8.598;2023-05-07T08:55:56;23.70;48.20
32147;DHT22;32190;49.112;8.598;2023-05-07T09:01:47;23.80;48.40
32147;DHT22;32190;49.112;8.598;2023-05-07T09:07:37;23.90;48.50
32147;DHT22;32190;49.112;8.598;2023-05-07T09:13:28;23.90;48.30
32147;DHT22;32190;49.112;8.598;2023-05-07T09:19:26;24.00;48.60
32147;DHT22;32190;49.112;8.598;2023-05-07T09:25:28;24.10;48.70
32147;DHT22;32190;49.112;8.598;2023-05-07T09:31:18;24.10;48.80
32147;DHT22;32190;49.112;8.598;2023-05-07T09:37:12;24.20;48.60
32147;DHT22;32190;49.112;8.598;2023-05-07T09:43:13;24.30;48.50
32147;DHT22;32190;49.112;8.598;2023-05-07T09:49:07;24.40;48.70
32147;DHT22;32190;49.112;8.598;2023-05-07T09:54:59;24.50;48.50
32147;DHT22;32190;49.112;8.598;2023-05-07T10:00:51;24.60;48.30
32147;DHT22;32190;49.112;8.598;2023-05-07T10:06:44;24.70;48.00
32147;DHT22;32190;49.112;8.598;2023-05-07T10:12:36;24.80;48.00
32147;DHT22;32190;49.112;8.598;2023-05-07T10:18:31;25.00;48.00
32147;DHT22;32190;49.112;8.598;2023-05-07T10:24:29;25.10;47.90
32147;DHT22;32190;49.112;8.598;2023-05-07T10:36:24;25.30;47.50
32147;DHT22;32190;49.112;8.598;2023-05-07T10:42:15;25.50;47.80
32147;DHT22;32190;49.112;8.598;2023-05-07T10:48:14;25.60;48.20
32147;DHT22;32190;49.112;8.598;2023-05-07T11:00:47;25.90;47.70
32147;DHT22;32190;49.112;8.598;2023-05-07T11:06:14;26.00;47.30
32147;DHT22;32190;49.112;8.598;2023-05-07T11:12:05;26.10;46.80
32147;DHT22;32190;49.112;8.598;2023-05-07T11:17:57;26.10;46.90
32147;DHT22;32190;49.112;8.598;2023-05-07T11:29:39;26.30;46.60
32147;DHT22;32190;49.112;8.598;2023-05-07T11:35:29;26.40;46.30
32147;DHT22;32190;49.112;8.598;2023-05-07T11:41:20;26.40;46.40
32147;DHT22;32190;49.112;8.598;2023-05-07T11:47:12;26.50;46.20
32147;DHT22;32190;49.112;8.598;2023-05-07T11:53:07;26.60;46.20
32147;DHT22;32190;49.112;8.598;2023-05-07T11:58:58;26.60;46.00
32147;DHT22;32190;49.112;8.598;2023-05-07T12:04:49;26.70;46.00
32147;DHT22;32190;49.112;8.598;2023-05-07T12:10:41;26.80;46.20
32147;DHT22;32190;49.112;8.598;2023-05-07T12:16:32;26.90;45.80
32147;DHT22;32190;49.112;8.598;2023-05-07T12:22:23;27.00;45.70
32147;DHT22;32190;49.112;8.598;2023-05-07T12:28:15;27.20;45.80
32147;DHT22;32190;49.112;8.598;2023-05-07T12:34:05;27.30;45.70
32147;DHT22;32190;49.112;8.598;2023-05-07T12:40:06;27.30;45.00
32147;DHT22;32190;49.112;8.598;2023-05-07T12:46:01;27.40;44.70
32147;DHT22;32190;49.112;8.598;2023-05-07T12:51:53;27.50;45.10
32147;DHT22;32190;49.112;8.598;2023-05-07T12:57:47;27.60;45.20
32147;DHT22;32190;49.112;8.598;2023-05-07T13:03:38;27.60;44.20
32147;DHT22;32190;49.112;8.598;2023-05-07T13:09:29;27.70;44.50
32147;DHT22;32190;49.112;8.598;2023-05-07T13:15:21;27.60;45.40
32147;DHT22;32190;49.112;8.598;2023-05-07T13:21:12;27.60;45.30
32147;DHT22;32190;49.112;8.598;2023-05-07T13:27:03;27.60;45.60
32147;DHT22;32190;49.112;8.598;2023-05-07T13:32:55;27.60;45.60
32147;DHT22;32190;49.112;8.598;2023-05-07T13:38:46;27.50;46.00
32147;DHT22;32190;49.112;8.598;2023-05-07T13:44:36;27.30;46.40
32147;DHT22;32190;49.112;8.598;2023-05-07T13:50:27;27.00;46.00
32147;DHT22;32190;49.112;8.598;2023-05-07T13:56:19;26.50;46.20
32147;DHT22;32190;49.112;8.598;2023-05-07T14:02:10;25.80;46.00
32147;DHT22;32190;49.112;8.598;2023-05-07T14:08:01;25.10;46.20
32147;DHT22;32190;49.112;8.598;2023-05-07T14:13:51;24.30;47.30
32147;DHT22;32190;49.112;8.598;2023-05-07T14:19:43;23.80;48.60
32147;DHT22;32190;49.112;8.598;2023-05-07T14:25:34;23.50;49.60
32147;DHT22;32190;49.112;8.598;2023-05-07T14:31:25;23.30;48.90
32147;DHT22;32190;49.112;8.598;2023-05-07T14:37:15;23.00;49.60
32147;DHT22;32190;49.112;8.598;2023-05-07T14:43:06;22.90;50.10
32147;DHT22;32190;49.112;8.598;2023-05-07T14:48:57;22.80;50.70
32147;DHT22;32190;49.112;8.598;2023-05-07T14:54:47;22.80;51.00
32147;DHT22;32190;49.112;8.598;2023-05-07T15:00:38;22.90;51.20
32147;DHT22;32190;49.112;8.598;2023-05-07T15:06:28;23.00;51.30
32147;DHT22;32190;49.112;8.598;2023-05-07T15:12:19;23.00;51.40
32147;DHT22;32190;49.112;8.598;2023-05-07T15:18:10;23.00;51.50
32147;DHT22;32190;49.112;8.598;2023-05-07T15:24:01;23.10;51.60
32147;DHT22;32190;49.112;8.598;2023-05-07T15:29:51;23.00;51.70
32147;DHT22;32190;49.112;8.598;2023-05-07T15:35:42;22.90;51.70
32147;DHT22;32190;49.112;8.598;2023-05-07T15:41:33;22.80;52.10
32147;DHT22;32190;49.112;8.598;2023-05-07T15:47:23;22.80;52.40
32147;DHT22;32190;49.112;8.598;2023-05-07T15:53:14;22.70;52.50
32147;DHT22;32190;49.112;8.598;2023-05-07T15:59:04;22.60;52.80
32147;DHT22;32190;49.112;8.598;2023-05-07T16:04:55;22.60;53.30
32147;DHT22;32190;49.112;8.598;2023-05-07T16:10:45;22.60;53.30
32147;DHT22;32190;49.112;8.598;2023-05-07T16:16:36;22.70;53.30
32147;DHT22;32190;49.112;8.598;2023-05-07T16:22:28;22.70;53.30
32147;DHT22;32190;49.112;8.598;2023-05-07T16:28:19;22.70;53.20
32147;DHT22;32190;49.112;8.598;2023-05-07T16:34:09;22.60;53.20
32147;DHT22;32190;49.112;8.598;2023-05-07T16:40:00;22.50;53.30
32147;DHT22;32190;49.112;8.598;2023-05-07T16:45:51;22.50;53.40
32147;DHT22;32190;49.112;8.598;2023-05-07T16:51:42;22.50;53.60
32147;DHT22;32190;49.112;8.598;2023-05-07T16:57:33;22.30;53.60
32147;DHT22;32190;49.112;8.598;2023-05-07T17:03:24;22.30;53.60
32147;DHT22;32190;49.112;8.598;2023-05-07T17:09:15;22.20;53.80
32147;DHT22;32190;49.112;8.598;2023-05-07T17:15:05;22.10;53.90
32147;DHT22;32190;49.112;8.598;2023-05-07T17:20:56;22.10;54.00
32147;DHT22;32190;49.112;8.598;2023-05-07T17:26:47;22.20;54.10
32147;DHT22;32190;49.112;8.598;2023-05-07T17:32:37;22.10;54.20
32147;DHT22;32190;49.112;8.598;2023-05-07T17:38:29;22.10;54.20
32147;DHT22;32190;49.112;8.598;2023-05-07T17:44:20;22.10;54.20
32147;DHT22;32190;49.112;8.598;2023-05-07T17:50:11;22.10;54.30
32147;DHT22;32190;49.112;8.598;2023-05-07T17:56:02;22.10;54.30
32147;DHT22;32190;49.112;8.598;2023-05-07T18:01:53;22.10;54.40
32147;DHT22;32190;49.112;8.598;2023-05-07T18:07:43;22.10;54.60
32147;DHT22;32190;49.112;8.598;2023-05-07T18:13:34;22.00;54.60
32147;DHT22;32190;49.112;8.598;2023-05-07T18:19:24;22.00;54.60
32147;DHT22;32190;49.112;8.598;2023-05-07T18:25:16;21.90;54.80
32147;DHT22;32190;49.112;8.598;2023-05-07T18:31:07;21.80;55.00
32147;DHT22;32190;49.112;8.598;2023-05-07T18:36:57;21.80;55.10
32147;DHT22;32190;49.112;8.598;2023-05-07T18:42:48;21.70;55.20
32147;DHT22;32190;49.112;8.598;2023-05-07T18:48:38;21.80;55.40
32147;DHT22;32190;49.112;8.598;2023-05-07T18:54:29;21.70;55.40
32147;DHT22;32190;49.112;8.598;2023-05-07T19:00:20;21.70;55.40
32147;DHT22;32190;49.112;8.598;2023-05-07T19:06:10;21.80;55.50
32147;DHT22;32190;49.112;8.598;2023-05-07T19:12:01;21.70;55.50
32147;DHT22;32190;49.112;8.598;2023-05-07T19:17:51;21.70;55.50
32147;DHT22;32190;49.112;8.598;2023-05-07T19:23:43;21.70;55.50
32147;DHT22;32190;49.112;8.598;2023-05-07T19:29:35;21.70;55.50
32147;DHT22;32190;49.112;8.598;2023-05-07T19:35:26;21.70;55.50
32147;DHT22;32190;49.112;8.598;2023-05-07T19:41:16;21.60;55.50
32147;DHT22;32190;49.112;8.598;2023-05-07T19:47:07;21.70;55.50
32147;DHT22;32190;49.112;8.598;2023-05-07T19:52:58;21.60;55.60
32147;DHT22;32190;49.112;8.598;2023-05-07T19:58:49;21.60;55.70
32147;DHT22;32190;49.112;8.598;2023-05-07T20:04:40;21.50;55.80
32147;DHT22;32190;49.112;8.598;2023-05-07T20:10:31;21.30;56.00
32147;DHT22;32190;49.112;8.598;2023-05-07T20:16:21;21.10;56.30
32147;DHT22;32190;49.112;8.598;2023-05-07T20:22:12;21.00;56.50
32147;DHT22;32190;49.112;8.598;2023-05-07T20:28:02;21.00;56.60
32147;DHT22;32190;49.112;8.598;2023-05-07T20:33:53;21.00;56.60
32147;DHT22;32190;49.112;8.598;2023-05-07T20:39:43;21.10;56.60
32147;DHT22;32190;49.112;8.598;2023-05-07T20:45:34;21.10;56.60
32147;DHT22;32190;49.112;8.598;2023-05-07T20:51:25;21.10;56.70
32147;DHT22;32190;49.112;8.598;2023-05-07T20:57:16;21.00;56.70
32147;DHT22;32190;49.112;8.598;2023-05-07T21:03:09;21.00;56.80
32147;DHT22;32190;49.112;8.598;2023-05-07T21:09:00;21.00;56.90
32147;DHT22;32190;49.112;8.598;2023-05-07T21:14:50;21.00;56.80
32147;DHT22;32190;49.112;8.598;2023-05-07T21:20:41;21.00;56.80
32147;DHT22;32190;49.112;8.598;2023-05-07T21:26:31;21.00;56.70
32147;DHT22;32190;49.112;8.598;2023-05-07T21:32:22;21.10;56.70
32147;DHT22;32190;49.112;8.598;2023-05-07T21:38:13;21.10;56.60
32147;DHT22;32190;49.112;8.598;2023-05-07T21:44:04;21.10;56.50
32147;DHT22;32190;49.112;8.598;2023-05-07T21:49:54;21.10;56.80
32147;DHT22;32190;49.112;8.598;2023-05-07T21:55:45;21.10;56.90
32147;DHT22;32190;49.112;8.598;2023-05-07T22:01:35;21.00;56.90
32147;DHT22;32190;49.112;8.598;2023-05-07T22:07:26;21.00;57.00
32147;DHT22;32190;49.112;8.598;2023-05-07T22:13:16;21.00;57.10
32147;DHT22;32190;49.112;8.598;2023-05-07T22:19:07;20.90;57.30
32147;DHT22;32190;49.112;8.598;2023-05-07T22:24:57;20.80;57.50
32147;DHT22;32190;49.112;8.598;2023-05-07T22:30:49;20.70;57.40
32147;DHT22;32190;49.112;8.598;2023-05-07T22:36:40;20.70;57.70
32147;DHT22;32190;49.112;8.598;2023-05-07T22:42:31;20.70;57.70
32147;DHT22;32190;49.112;8.598;2023-05-07T22:48:21;20.70;57.50
32147;DHT22;32190;49.112;8.598;2023-05-07T22:54:12;20.70;57.40
32147;DHT22;32190;49.112;8.598;2023-05-07T23:00:03;20.70;57.60
32147;DHT22;32190;49.112;8.598;2023-05-07T23:05:54;20.70;57.70
32147;DHT22;32190;49.112;8.598;2023-05-07T23:11:44;20.70;57.70
32147;DHT22;32190;49.112;8.598;2023-05-07T23:17:35;20.60;57.70
32147;DHT22;32190;49.112;8.598;2023-05-07T23:23:26;20.60;57.80
32147;DHT22;32190;49.112;8.598;2023-05-07T23:29:22;20.60;57.90
32147;DHT22;32190;49.112;8.598;2023-05-07T23:35:13;20.50;57.80
32147;DHT22;32190;49.112;8.598;2023-05-07T23:41:03;20.50;58.00
32147;DHT22;32190;49.112;8.598;2023-05-07T23:46:54;20.50;57.90
32147;DHT22;32190;49.112;8.598;2023-05-07T23:52:45;20.50;58.00
32147;DHT22;32190;49.112;8.598;2023-05-07T23:58:35;20.50;57.80
